createdAt,value
2023-02-11T00:00:24.317Z,17.17
2023-02-11T00:03:11.991Z,16.50
2023-02-11T00:05:39.402Z,15.18
2023-02-11T00:08:07.172Z,15.85
2023-02-11T00:10:34.626Z,15.32
2023-02-11T00:13:02.323Z,16.15
2023-02-11T00:15:29.653Z,16.52
2023-02-11T00:17:57.364Z,16.95
2023-02-11T00:20:24.714Z,17.23
2023-02-11T00:22:52.367Z,16.42
2023-02-11T00:25:19.781Z,15.75
2023-02-11T00:27:47.455Z,16.27
2023-02-11T00:30:14.885Z,15.85
2023-02-11T00:32:42.511Z,15.90
2023-02-11T00:35:09.847Z,16.02
2023-02-11T00:37:37.546Z,15.95
2023-02-11T00:40:06.838Z,16.02
2023-02-11T00:42:34.689Z,14.55
2023-02-11T00:45:02.221Z,17.33
2023-02-11T00:47:29.918Z,16.27
2023-02-11T00:49:57.315Z,16.40
2023-02-11T00:52:24.933Z,16.48
2023-02-11T00:54:52.448Z,16.85
2023-02-11T00:57:20.104Z,17.35
2023-02-11T00:59:47.510Z,15.88
2023-02-11T01:02:15.221Z,16.88
2023-02-11T01:04:42.685Z,16.63
2023-02-11T01:07:10.391Z,16.75
2023-02-11T01:09:38.323Z,15.25
2023-02-11T01:12:06.149Z,17.77
2023-02-11T01:14:33.552Z,16.50
2023-02-11T01:17:01.241Z,17.15
2023-02-11T01:19:28.586Z,15.80
2023-02-11T01:21:56.239Z,17.40
2023-02-11T01:24:23.611Z,17.13
2023-02-11T01:26:51.240Z,16.38
2023-02-11T01:29:18.799Z,17.10
2023-02-11T01:31:46.655Z,18.15
2023-02-11T01:34:14.148Z,16.98
2023-02-11T01:37:00.401Z,17.55
2023-02-11T01:39:46.154Z,17.27
2023-02-11T01:42:32.740Z,16.60
2023-02-11T01:45:37.046Z,17.67
2023-02-11T01:48:04.839Z,18.02
2023-02-11T01:50:32.399Z,18.65
2023-02-11T01:53:00.064Z,16.75
2023-02-11T01:55:27.429Z,17.77
2023-02-11T01:57:57.088Z,17.15
2023-02-11T02:00:26.353Z,18.95
2023-02-11T02:02:56.800Z,16.92
2023-02-11T02:05:36.214Z,18.30
2023-02-11T02:08:04.104Z,26.20
2023-02-11T02:10:33.984Z,19.55
2023-02-11T02:13:01.600Z,18.75
2023-02-11T02:15:36.366Z,18.80
2023-02-11T02:18:18.943Z,17.75
2023-02-11T02:20:46.303Z,19.58
2023-02-11T02:23:21.790Z,18.40
2023-02-11T02:26:09.414Z,18.05
2023-02-11T02:28:49.364Z,17.73
2023-02-11T02:31:45.890Z,17.33
2023-02-11T02:34:22.997Z,17.75
2023-02-11T02:36:53.085Z,16.80
2023-02-11T02:39:24.097Z,16.70
2023-02-11T02:41:52.017Z,15.55
2023-02-11T02:44:20.358Z,19.63
2023-02-11T02:46:47.996Z,16.77
2023-02-11T02:49:16.381Z,15.55
2023-02-11T02:51:54.631Z,15.27
2023-02-11T02:54:40.977Z,15.88
2023-02-11T02:57:14.095Z,15.85
2023-02-11T03:03:09.994Z,16.73
2023-02-11T03:09:11.361Z,15.23
2023-02-11T03:11:39.869Z,16.48
2023-02-11T03:14:10.532Z,13.85
2023-02-11T03:16:38.838Z,14.63
2023-02-11T03:19:10.386Z,16.17
2023-02-11T03:21:38.753Z,16.43
2023-02-11T03:24:08.504Z,14.73
2023-02-11T03:26:38.357Z,14.70
2023-02-11T03:29:08.765Z,16.55
2023-02-11T03:32:02.388Z,15.27
2023-02-11T03:34:32.458Z,16.10
2023-02-11T03:37:02.618Z,15.88
2023-02-11T03:39:50.563Z,15.38
2023-02-11T03:46:01.322Z,16.02
2023-02-11T03:48:32.810Z,15.50
2023-02-11T03:51:02.682Z,15.50
2023-02-11T03:53:30.075Z,15.13
2023-02-11T03:55:59.985Z,14.77
2023-02-11T03:58:27.448Z,14.07
2023-02-11T04:00:55.224Z,15.02
2023-02-11T04:03:22.695Z,16.20
2023-02-11T04:05:50.604Z,14.63
2023-02-11T04:08:18.126Z,15.23
2023-02-11T04:10:45.765Z,14.23
2023-02-11T04:13:13.183Z,13.95
2023-02-11T04:15:40.878Z,14.10
2023-02-11T04:18:08.370Z,13.48
2023-02-11T04:20:36.089Z,14.10
2023-02-11T04:23:03.557Z,13.80
2023-02-11T04:25:31.260Z,14.05
2023-02-11T04:27:58.703Z,14.32
2023-02-11T04:30:26.469Z,13.20
2023-02-11T04:32:53.818Z,12.80
2023-02-11T04:35:21.651Z,14.65
2023-02-11T04:37:49.028Z,14.50
2023-02-11T04:40:16.775Z,14.88
2023-02-11T04:42:44.181Z,12.90
2023-02-11T04:45:11.885Z,14.20
2023-02-11T04:47:39.257Z,14.80
2023-02-11T04:50:06.908Z,14.45
2023-02-11T04:52:34.462Z,15.18
2023-02-11T04:55:02.446Z,14.18
2023-02-11T04:57:29.788Z,14.23
2023-02-11T04:59:57.663Z,13.77
2023-02-11T05:02:25.133Z,14.52
2023-02-11T05:04:52.803Z,14.13
2023-02-11T05:07:20.227Z,15.57
2023-02-11T05:09:47.919Z,14.45
2023-02-11T05:12:15.458Z,14.32
2023-02-11T05:14:43.169Z,15.40
2023-02-11T05:17:10.520Z,15.07
2023-02-11T05:19:38.359Z,14.18
2023-02-11T05:22:05.760Z,15.07
2023-02-11T05:24:33.977Z,15.10
2023-02-11T05:27:01.642Z,15.00
2023-02-11T05:29:29.523Z,15.80
2023-02-11T05:31:58.216Z,14.13
2023-02-11T05:34:26.017Z,14.07
2023-02-11T05:36:53.431Z,14.48
2023-02-11T05:39:21.288Z,14.85
2023-02-11T05:41:48.674Z,12.82
2023-02-11T05:44:16.404Z,14.90
2023-02-11T05:46:43.932Z,15.55
2023-02-11T05:49:11.815Z,15.93
2023-02-11T05:51:39.313Z,15.23
2023-02-11T05:54:07.267Z,14.55
2023-02-11T05:56:34.701Z,22.48
2023-02-11T05:59:02.338Z,14.65
2023-02-11T06:01:29.955Z,13.35
2023-02-11T06:03:57.664Z,14.23
2023-02-11T06:06:25.300Z,14.88
2023-02-11T06:08:53.052Z,14.52
2023-02-11T06:11:20.479Z,15.38
2023-02-11T06:13:48.189Z,14.27
2023-02-11T06:16:15.759Z,14.68
2023-02-11T06:18:43.461Z,14.13
2023-02-11T06:21:11.242Z,16.55
2023-02-11T06:23:39.223Z,14.82
2023-02-11T06:26:08.543Z,14.50
2023-02-11T06:28:36.349Z,14.18
2023-02-11T06:31:06.806Z,14.65
2023-02-11T06:33:35.198Z,14.43
2023-02-11T06:36:03.174Z,14.18
2023-02-11T06:38:30.825Z,13.90
2023-02-11T06:40:58.274Z,14.90
2023-02-11T06:43:25.942Z,14.88
2023-02-11T06:45:54.170Z,14.57
2023-02-11T06:48:22.108Z,13.95
2023-02-11T06:50:49.432Z,12.80
2023-02-11T06:53:17.121Z,13.52
2023-02-11T06:55:44.571Z,13.18
2023-02-11T06:58:12.265Z,13.40
2023-02-11T07:00:39.616Z,13.18
2023-02-11T07:06:32.814Z,14.82
2023-02-11T07:09:00.500Z,14.38
2023-02-11T07:11:29.238Z,12.48
2023-02-11T07:14:00.061Z,14.57
2023-02-11T07:16:27.766Z,12.98
2023-02-11T07:18:55.565Z,13.65
2023-02-11T07:21:23.271Z,13.00
2023-02-11T07:23:51.093Z,11.70
2023-02-11T07:26:20.294Z,12.88
2023-02-11T07:28:47.978Z,12.35
2023-02-11T07:31:16.651Z,13.02
2023-02-11T07:33:44.617Z,13.10
2023-02-11T07:36:13.377Z,12.07
2023-02-11T07:38:41.039Z,13.88
2023-02-11T07:41:12.534Z,11.85
2023-02-11T07:43:40.930Z,12.77
2023-02-11T07:46:09.975Z,13.23
2023-02-11T07:48:37.861Z,12.35
2023-02-11T07:51:08.072Z,12.35
2023-02-11T07:53:35.824Z,13.43
2023-02-11T07:56:04.018Z,13.68
2023-02-11T07:58:32.248Z,12.15
2023-02-11T08:01:03.904Z,13.85
2023-02-11T08:03:31.923Z,14.45
2023-02-11T08:06:02.778Z,13.45
2023-02-11T08:08:30.450Z,12.88
2023-02-11T08:10:59.972Z,12.70
2023-02-11T08:13:38.960Z,14.30
2023-02-11T08:16:06.937Z,13.25
2023-02-11T08:18:36.397Z,13.35
2023-02-11T08:21:07.396Z,12.27
2023-02-11T08:23:38.662Z,11.60
2023-02-11T08:26:06.920Z,13.07
2023-02-11T08:28:35.950Z,12.90
2023-02-11T08:31:06.832Z,12.93
2023-02-11T08:33:34.610Z,11.75
2023-02-11T08:36:02.068Z,12.57
2023-02-11T08:38:29.836Z,13.63
2023-02-11T08:40:59.446Z,14.25
2023-02-11T08:43:27.123Z,15.18
2023-02-11T08:45:54.644Z,15.25
2023-02-11T08:48:22.519Z,13.48
2023-02-11T08:50:52.561Z,15.05
2023-02-11T08:53:20.319Z,12.68
2023-02-11T08:55:48.650Z,13.13
2023-02-11T08:58:19.086Z,14.93
2023-02-11T09:00:46.904Z,13.45
2023-02-11T09:03:15.156Z,12.55
2023-02-11T09:05:43.266Z,14.63
2023-02-11T09:08:11.301Z,13.13
2023-02-11T09:10:39.056Z,13.57
2023-02-11T09:13:07.488Z,13.10
2023-02-11T09:15:35.100Z,13.43
2023-02-11T09:18:04.400Z,14.65
2023-02-11T09:20:31.974Z,13.10
2023-02-11T09:22:59.742Z,12.85
2023-02-11T09:25:27.187Z,14.13
2023-02-11T09:27:54.983Z,14.40
2023-02-11T09:30:22.572Z,14.75
2023-02-11T09:32:50.467Z,13.15
2023-02-11T09:35:17.982Z,13.95
2023-02-11T09:37:45.705Z,13.70
2023-02-11T09:40:14.473Z,13.75
2023-02-11T09:42:50.746Z,13.35
2023-02-11T09:45:25.365Z,12.82
2023-02-11T09:47:57.789Z,11.48
2023-02-11T09:50:25.299Z,12.85
2023-02-11T09:53:02.045Z,12.57
2023-02-11T09:55:29.482Z,11.30
2023-02-11T09:57:57.720Z,10.75
2023-02-11T10:00:37.304Z,11.07
2023-02-11T10:03:23.514Z,10.27
2023-02-11T10:05:50.916Z,9.60
2023-02-11T10:08:24.517Z,9.88
2023-02-11T10:10:54.062Z,10.07
2023-02-11T10:13:21.889Z,10.27
2023-02-11T10:15:49.287Z,9.00
2023-02-11T10:18:19.719Z,10.40
2023-02-11T10:21:05.574Z,9.45
2023-02-11T10:23:40.140Z,11.18
2023-02-11T10:26:16.081Z,10.65
2023-02-11T10:28:48.453Z,10.65
2023-02-11T10:31:25.820Z,10.77
2023-02-11T10:34:04.376Z,10.15
2023-02-11T10:36:36.436Z,9.93
2023-02-11T10:41:33.801Z,10.98
2023-02-11T10:44:01.517Z,11.32
2023-02-11T10:46:33.205Z,10.00
2023-02-11T10:49:00.874Z,11.32
2023-02-11T10:51:29.834Z,11.13
2023-02-11T10:54:06.414Z,12.25
2023-02-11T10:56:35.395Z,11.13
2023-02-11T10:59:41.545Z,10.93
2023-02-11T11:02:23.742Z,11.70
2023-02-11T11:07:18.784Z,10.10
2023-02-11T11:09:53.821Z,10.55
2023-02-11T11:12:33.124Z,12.43
2023-02-11T11:15:02.611Z,10.25
2023-02-11T11:17:30.055Z,10.70
2023-02-11T11:20:16.548Z,10.90
2023-02-11T11:22:44.163Z,11.18
2023-02-11T11:25:20.995Z,12.68
2023-02-11T11:27:49.472Z,11.93
2023-02-11T11:30:17.401Z,12.05
2023-02-11T11:32:44.966Z,12.20
2023-02-11T11:35:26.119Z,12.63
2023-02-11T11:38:03.898Z,11.98
2023-02-11T11:40:33.114Z,11.30
2023-02-11T11:43:06.485Z,11.48
2023-02-11T11:45:34.444Z,11.15
2023-02-11T11:51:01.146Z,11.18
2023-02-11T11:53:37.457Z,11.10
2023-02-11T11:56:16.413Z,10.48
2023-02-11T11:58:43.922Z,9.50
2023-02-11T12:01:17.618Z,10.77
2023-02-11T12:03:48.001Z,11.43
2023-02-11T12:06:15.777Z,12.05
2023-02-11T12:08:55.588Z,11.98
2023-02-11T12:11:32.437Z,9.18
2023-02-11T12:14:06.243Z,11.38
2023-02-11T12:16:43.273Z,9.93
2023-02-11T12:19:19.211Z,11.70
2023-02-11T12:22:00.889Z,11.60
2023-02-11T12:24:31.182Z,12.35
2023-02-11T12:27:02.073Z,12.43
2023-02-11T12:29:41.682Z,13.18
2023-02-11T12:32:09.750Z,13.15
2023-02-11T12:34:46.109Z,12.60
2023-02-11T12:37:25.769Z,12.30
2023-02-11T12:40:11.685Z,11.98
2023-02-11T12:42:42.541Z,11.65
2023-02-11T12:45:12.948Z,12.27
2023-02-11T12:47:40.737Z,10.63
2023-02-11T12:50:08.301Z,9.63
2023-02-11T12:52:36.113Z,9.95
2023-02-11T12:55:09.350Z,11.40
2023-02-11T12:57:37.993Z,12.13
2023-02-11T13:00:37.851Z,10.07
2023-02-11T13:03:24.225Z,10.63
2023-02-11T13:05:56.944Z,11.48
2023-02-11T13:08:33.055Z,12.02
2023-02-11T13:11:07.473Z,10.98
2023-02-11T13:13:58.176Z,11.30
2023-02-11T13:16:40.796Z,11.27
2023-02-11T13:19:08.689Z,11.50
2023-02-11T13:21:40.110Z,11.07
2023-02-11T13:24:25.534Z,11.80
2023-02-11T13:26:55.751Z,11.10
2023-02-11T13:30:04.113Z,11.02
2023-02-11T13:32:50.378Z,11.52
2023-02-11T13:35:28.527Z,11.57
2023-02-11T13:37:56.700Z,11.10
2023-02-11T13:40:25.937Z,12.18
2023-02-11T13:42:56.265Z,10.07
2023-02-11T13:45:42.557Z,11.43
2023-02-11T13:48:19.823Z,12.32
2023-02-11T13:50:52.358Z,9.65
2023-02-11T13:53:20.410Z,11.57
2023-02-11T13:55:50.286Z,12.15
2023-02-11T13:58:19.554Z,10.52
2023-02-11T14:00:49.398Z,11.70
2023-02-11T14:03:19.972Z,11.15
2023-02-11T14:06:07.822Z,12.98
2023-02-11T14:08:38.462Z,11.88
2023-02-11T14:11:09.339Z,12.20
2023-02-11T14:13:56.893Z,12.18
2023-02-11T14:16:37.398Z,12.13
2023-02-11T14:19:06.707Z,10.95
2023-02-11T14:21:36.439Z,12.45
2023-02-11T14:24:06.545Z,10.55
2023-02-11T14:26:40.259Z,10.30
2023-02-11T14:29:19.992Z,9.65
2023-02-11T14:31:54.900Z,10.48
2023-02-11T14:34:43.229Z,10.60
2023-02-11T14:37:28.448Z,10.73
2023-02-11T14:40:18.229Z,11.00
2023-02-11T14:42:45.942Z,11.15
2023-02-11T14:45:19.871Z,10.85
2023-02-11T14:47:59.671Z,10.43
2023-02-11T14:50:31.935Z,9.90
2023-02-11T14:53:01.339Z,11.63
2023-02-11T14:55:30.864Z,11.10
2023-02-11T14:58:04.999Z,11.32
2023-02-11T15:00:32.409Z,12.25
2023-02-11T15:03:00.322Z,11.35
2023-02-11T15:05:28.608Z,12.35
2023-02-11T15:07:58.452Z,12.63
2023-02-11T15:10:31.060Z,12.40
2023-02-11T15:12:59.683Z,11.75
2023-02-11T15:15:27.710Z,10.98
2023-02-11T15:17:56.312Z,11.48
2023-02-11T15:20:28.456Z,12.40
2023-02-11T15:23:02.904Z,13.13
2023-02-11T15:25:32.377Z,11.85
2023-02-11T15:28:01.920Z,12.93
2023-02-11T15:30:31.091Z,12.43
2023-02-11T15:33:00.021Z,12.27
2023-02-11T15:35:28.984Z,12.38
2023-02-11T15:37:58.064Z,13.18
2023-02-11T15:40:27.286Z,12.90
2023-02-11T15:42:59.010Z,13.20
2023-02-11T15:45:29.413Z,12.52
2023-02-11T15:47:59.888Z,11.30
2023-02-11T15:50:32.082Z,13.10
2023-02-11T15:53:01.302Z,12.73
2023-02-11T15:55:29.012Z,13.55
2023-02-11T15:57:59.671Z,13.45
2023-02-11T16:00:32.263Z,13.35
2023-02-11T16:02:59.941Z,13.68
2023-02-11T16:05:37.504Z,12.63
2023-02-11T16:08:25.626Z,13.60
2023-02-11T16:10:57.589Z,12.93
2023-02-11T16:13:26.566Z,13.23
2023-02-11T16:16:04.212Z,12.60
2023-02-11T16:18:38.636Z,11.43
2023-02-11T16:21:12.344Z,12.05
2023-02-11T16:23:41.165Z,11.73
2023-02-11T16:26:11.811Z,12.50
2023-02-11T16:28:40.045Z,12.25
2023-02-11T16:31:18.765Z,12.50
2023-02-11T16:34:01.265Z,11.82
2023-02-11T16:36:28.785Z,11.68
2023-02-11T16:38:56.670Z,12.43
2023-02-11T16:41:24.099Z,12.23
2023-02-11T16:43:51.793Z,12.30
2023-02-11T16:46:21.941Z,12.77
2023-02-11T16:48:49.768Z,11.77
2023-02-11T16:51:17.110Z,12.30
2023-02-11T16:53:44.998Z,11.70
2023-02-11T16:56:15.814Z,11.25
2023-02-11T16:58:43.999Z,11.90
2023-02-11T17:01:13.965Z,11.80
2023-02-11T17:03:42.294Z,11.93
2023-02-11T17:06:10.683Z,12.63
2023-02-11T17:08:38.367Z,10.63
2023-02-11T17:11:05.920Z,10.85
2023-02-11T17:13:33.856Z,11.30
2023-02-11T17:16:01.346Z,10.57
2023-02-11T17:18:29.197Z,12.38
2023-02-11T17:20:56.639Z,11.80
2023-02-11T17:23:24.309Z,11.73
2023-02-11T17:25:55.496Z,12.75
2023-02-11T17:28:23.192Z,11.90
2023-02-11T17:30:50.887Z,10.80
2023-02-11T17:33:18.732Z,10.95
2023-02-11T17:35:46.165Z,11.45
2023-02-11T17:38:14.058Z,11.15
2023-02-11T17:40:41.700Z,10.73
2023-02-11T17:43:09.652Z,10.70
2023-02-11T17:45:48.249Z,11.20
2023-02-11T17:48:16.003Z,11.13
2023-02-11T17:50:43.630Z,12.48
2023-02-11T17:53:11.369Z,12.82
2023-02-11T17:55:38.758Z,10.70
2023-02-11T17:58:06.561Z,11.40
2023-02-11T18:00:34.079Z,11.85
2023-02-11T18:03:01.759Z,11.80
2023-02-11T18:05:33.927Z,11.23
2023-02-11T18:08:01.961Z,11.23
2023-02-11T18:10:29.449Z,11.77
2023-02-11T18:12:57.540Z,11.02
2023-02-11T18:15:24.969Z,10.77
2023-02-11T18:17:52.806Z,10.38
2023-02-11T18:20:20.439Z,10.95
2023-02-11T18:22:48.430Z,11.60
2023-02-11T18:25:16.335Z,10.52
2023-02-11T18:27:44.236Z,10.85
2023-02-11T18:30:14.733Z,11.43
2023-02-11T18:32:42.423Z,10.13
2023-02-11T18:35:12.671Z,11.27
2023-02-11T18:40:10.345Z,11.27
2023-02-11T18:42:38.402Z,10.60
2023-02-11T18:45:06.896Z,11.48
2023-02-11T18:47:34.936Z,10.85
2023-02-11T18:50:02.282Z,10.88
2023-02-11T18:52:30.073Z,10.85
2023-02-11T18:54:57.614Z,11.38
2023-02-11T18:57:25.307Z,11.90
2023-02-11T18:59:52.755Z,10.57
2023-02-11T19:02:20.407Z,10.93
2023-02-11T19:04:48.128Z,10.88
2023-02-11T19:07:16.030Z,11.18
2023-02-11T19:09:43.726Z,10.40
2023-02-11T19:12:11.631Z,11.40
2023-02-11T19:14:39.241Z,11.70
2023-02-11T19:17:07.686Z,13.23
2023-02-11T19:19:35.627Z,11.73
2023-02-11T19:22:05.135Z,11.45
2023-02-11T19:24:33.056Z,10.75
2023-02-11T19:27:01.883Z,11.63
2023-02-11T19:29:30.488Z,11.15
2023-02-11T19:31:58.261Z,11.02
2023-02-11T19:34:25.861Z,11.07
2023-02-11T19:36:53.851Z,11.52
2023-02-11T19:39:21.226Z,10.95
2023-02-11T19:41:49.047Z,10.73
2023-02-11T19:44:16.492Z,11.98
2023-02-11T19:46:44.838Z,11.45
2023-02-11T19:49:15.656Z,11.52
2023-02-11T19:51:43.479Z,10.93
2023-02-11T19:54:10.870Z,12.80
2023-02-11T19:56:39.019Z,12.38
2023-02-11T19:59:06.478Z,12.20
2023-02-11T20:01:34.526Z,13.57
2023-02-11T20:04:02.135Z,13.40
2023-02-11T20:06:31.102Z,12.60
2023-02-11T20:08:59.909Z,12.60
2023-02-11T20:11:29.002Z,12.88
2023-02-11T20:13:56.987Z,11.95
2023-02-11T20:16:37.096Z,11.63
2023-02-11T20:19:12.527Z,11.65
2023-02-11T20:21:40.439Z,10.50
2023-02-11T20:24:07.991Z,12.10
2023-02-11T20:26:36.158Z,11.05
2023-02-11T20:29:03.689Z,11.43
2023-02-11T20:31:32.021Z,11.52
2023-02-11T20:33:59.947Z,11.50
2023-02-11T20:36:28.646Z,11.13
2023-02-11T20:38:56.720Z,10.38
2023-02-11T20:41:25.181Z,11.00
2023-02-11T20:43:53.798Z,10.65
2023-02-11T20:46:25.684Z,11.13
2023-02-11T20:48:54.982Z,11.80
2023-02-11T20:51:26.831Z,10.85
2023-02-11T20:53:54.643Z,11.27
2023-02-11T20:56:23.619Z,11.13
2023-02-11T20:58:51.632Z,11.77
2023-02-11T21:01:23.459Z,11.10
2023-02-11T21:03:55.385Z,12.02
2023-02-11T21:06:23.476Z,11.90
2023-02-11T21:08:51.176Z,11.93
2023-02-11T21:11:18.913Z,12.93
2023-02-11T21:13:46.772Z,12.93
2023-02-11T21:16:15.357Z,12.65
2023-02-11T21:18:43.295Z,12.82
2023-02-11T21:21:10.744Z,12.25
2023-02-11T21:23:38.810Z,12.50
2023-02-11T21:26:06.669Z,12.45
2023-02-11T21:28:34.755Z,12.40
2023-02-11T21:31:02.989Z,12.90
2023-02-11T21:33:31.104Z,12.40
2023-02-11T21:35:59.261Z,12.80
2023-02-11T21:38:27.353Z,12.10
2023-02-11T21:40:55.382Z,13.40
2023-02-11T21:43:23.113Z,12.75
2023-02-11T21:45:51.038Z,13.38
2023-02-11T21:48:18.721Z,12.98
2023-02-11T21:50:46.988Z,12.65
2023-02-11T21:53:14.719Z,12.38
2023-02-11T21:55:42.354Z,12.98
2023-02-11T21:58:10.920Z,12.63
2023-02-11T22:00:38.542Z,12.57
2023-02-11T22:03:06.252Z,13.68
2023-02-11T22:05:44.783Z,13.27
2023-02-11T22:08:12.410Z,13.05
2023-02-11T22:10:39.768Z,12.93
2023-02-11T22:13:07.447Z,13.35
2023-02-11T22:15:34.869Z,12.77
2023-02-11T22:18:02.534Z,12.68
2023-02-11T22:20:29.887Z,12.63
2023-02-11T22:22:58.290Z,11.75
2023-02-11T22:25:25.718Z,11.88
2023-02-11T22:27:53.421Z,12.32
2023-02-11T22:30:20.858Z,12.27
2023-02-11T22:32:48.534Z,11.90
2023-02-11T22:35:15.949Z,12.45
2023-02-11T22:37:43.752Z,12.07
2023-02-11T22:40:11.480Z,12.70
2023-02-11T22:42:39.176Z,12.20
2023-02-11T22:45:06.822Z,12.77
2023-02-11T22:47:34.594Z,11.77
2023-02-11T22:50:01.919Z,11.05
2023-02-11T22:52:29.639Z,12.48
2023-02-11T22:54:57.043Z,12.30
2023-02-11T22:57:26.162Z,12.30
2023-02-11T22:59:53.726Z,12.18
2023-02-11T23:02:21.681Z,12.50
2023-02-11T23:04:50.040Z,13.25
2023-02-11T23:07:17.969Z,11.93
2023-02-11T23:09:45.407Z,11.98
2023-02-11T23:12:13.141Z,11.82
2023-02-11T23:14:40.489Z,11.95
2023-02-11T23:17:08.256Z,11.88
2023-02-11T23:19:35.626Z,12.30
2023-02-11T23:22:03.388Z,11.98
2023-02-11T23:24:30.771Z,11.85
2023-02-11T23:26:58.549Z,12.80
2023-02-11T23:29:26.064Z,12.85
2023-02-11T23:31:55.289Z,13.65
2023-02-11T23:34:24.384Z,12.13
2023-02-11T23:36:52.840Z,11.90
2023-02-11T23:39:20.511Z,12.93
2023-02-11T23:41:48.212Z,13.68
2023-02-11T23:44:15.606Z,12.70
2023-02-11T23:46:43.333Z,13.30
2023-02-11T23:49:10.753Z,12.85
2023-02-11T23:51:38.405Z,11.70
2023-02-11T23:54:05.867Z,12.27
2023-02-11T23:56:33.527Z,11.35
2023-02-11T23:59:00.954Z,11.20
